Time;durP1;ratioP1;P1;durP2;ratioP2;P2;SDS_P1;SDS_P2;PMS_P1;PMS_P2;Temp;Humidity;BMP_temperature;BMP_pressure;BME280_temperature;BME280_humidity;BME280_pressure;Samples;Min_cycle;Max_cycle;Signal;HPM_P1;HPM_P2
2022/11/29 00:01:59;;;;;;;42.58;24.15;;;6.90;63.90;;;;;;7388359;19;20012;-72
2022/11/29 00:04:29;;;;;;;34.53;22.17;;;7.00;64.00;;;;;;7392334;19;20037;-71
2022/11/29 00:06:59;;;;;;;35.25;22.90;;;6.90;63.90;;;;;;7393087;19;20015;-71
2022/11/29 00:09:29;;;;;;;37.72;22.60;;;6.90;63.90;;;;;;7385990;19;20014;-71
2022/11/29 00:12:11;;;;;;;38.20;22.65;;;6.90;63.90;;;;;;7388699;19;20006;-72
2022/11/29 00:14:41;;;;;;;35.42;21.88;;;6.90;63.90;;;;;;7392162;19;20014;-72
2022/11/29 00:17:11;;;;;;;33.53;21.55;;;7.00;64.00;;;;;;7389937;19;20474;-72
2022/11/29 00:19:43;;;;;;;37.92;22.00;;;7.00;64.00;;;;;;7385782;19;20514;-72
2022/11/29 00:22:13;;;;;;;33.88;22.08;;;7.00;64.00;;;;;;7387700;19;20007;-72
2022/11/29 00:24:43;;;;;;;35.10;23.08;;;7.00;64.00;;;;;;7392468;19;20093;-72
2022/11/29 00:27:16;;;;;;;36.58;22.27;;;6.90;63.90;;;;;;7392354;19;20013;-72
2022/11/29 00:29:46;;;;;;;36.58;22.27;;;6.90;63.90;;;;;;7384036;19;20450;-72
2022/11/29 00:32:15;;;;;;;33.63;21.10;;;6.90;63.90;;;;;;7387846;19;20017;-72
2022/11/29 00:34:45;;;;;;;34.53;22.70;;;7.00;64.00;;;;;;7391588;19;20081;-71
2022/11/29 00:37:15;;;;;;;34.47;22.15;;;7.00;64.10;;;;;;7390446;19;20015;-72
2022/11/29 00:39:45;;;;;;;36.58;22.40;;;7.00;64.10;;;;;;7382734;19;20038;-71
2022/11/29 00:42:17;;;;;;;32.38;21.63;;;7.00;64.10;;;;;;7387636;19;20014;-71
2022/11/29 00:44:47;;;;;;;37.33;23.38;;;7.00;64.10;;;;;;7391249;19;20081;-72
2022/11/29 00:47:17;;;;;;;39.58;23.40;;;6.90;64.10;;;;;;7391903;19;20391;-72
2022/11/29 00:49:47;;;;;;;36.83;22.70;;;7.00;64.30;;;;;;7384448;19;20525;-72
2022/11/29 00:52:17;;;;;;;35.35;22.95;;;7.00;64.50;;;;;;7386386;19;20011;-71
2022/11/29 00:54:46;;;;;;;40.05;22.73;;;7.00;64.40;;;;;;7390339;19;20011;-71
2022/11/29 00:57:19;;;;;;;37.85;23.17;;;7.00;64.50;;;;;;7388626;19;20026;-71
2022/11/29 00:59:49;;;;;;;32.75;22.90;;;7.00;64.60;;;;;;7384303;19;20011;-71
2022/11/29 01:02:18;;;;;;;39.33;23.02;;;7.00;64.70;;;;;;7387442;19;20026;-71
2022/11/29 01:04:48;;;;;;;42.25;23.88;;;7.00;64.80;;;;;;7390506;19;20007;-72
2022/11/29 01:07:18;;;;;;;34.65;23.02;;;7.10;65.20;;;;;;7390484;19;20088;-71
2022/11/29 01:09:48;;;;;;;39.90;23.20;;;7.10;65.20;;;;;;7380989;19;20014;-70
2022/11/29 01:12:20;;;;;;;35.65;23.08;;;7.10;65.40;;;;;;7385407;19;20042;-71
2022/11/29 01:14:50;;;;;;;36.88;23.27;;;7.10;65.30;;;;;;7389689;19;20020;-71
2022/11/29 01:17:20;;;;;;;34.95;23.35;;;7.10;65.30;;;;;;7389292;19;20010;-71
2022/11/29 01:19:50;;;;;;;37.00;23.42;;;7.10;65.30;;;;;;7382720;19;20027;-71
2022/11/29 01:22:19;;;;;;;32.17;22.80;;;7.10;65.40;;;;;;7385179;19;20024;-71
2022/11/29 01:24:49;;;;;;;40.05;22.15;;;7.10;65.30;;;;;;7388466;19;20035;-71
2022/11/29 01:27:22;;;;;;;30.15;21.60;;;7.10;65.30;;;;;;7391190;19;20452;-71
2022/11/29 01:29:52;;;;;;;32.78;22.17;;;7.10;65.60;;;;;;7381833;19;20074;-71
2022/11/29 01:32:22;;;;;;;37.83;22.55;;;7.10;65.70;;;;;;7385917;19;20017;-71
2022/11/29 01:34:52;;;;;;;35.83;21.90;;;7.10;65.80;;;;;;7389877;19;20014;-71
2022/11/29 01:37:22;;;;;;;31.58;21.00;;;7.10;65.90;;;;;;7388883;19;20362;-71
2022/11/29 01:39:52;;;;;;;35.97;21.13;;;7.10;65.90;;;;;;7383448;19;20480;-71
2022/11/29 01:42:24;;;;;;;30.20;20.02;;;7.10;66.10;;;;;;7385647;19;20010;-72
2022/11/29 01:45:09;;;;;;;29.13;19.80;;;7.10;66.10;;;;;;7388703;19;20021;-71
2022/11/29 01:47:44;;;;;;;32.58;19.77;;;7.20;66.20;;;;;;7389859;19;20030;-71
2022/11/29 01:50:14;;;;;;;;;;;7.20;66.30;;;;;;7381846;19;20347;-71
2022/11/29 01:52:44;;;;;;;30.25;19.17;;;7.20;66.30;;;;;;7387060;19;20323;-71
2022/11/29 01:55:14;;;;;;;29.48;18.77;;;7.20;66.40;;;;;;7389529;19;20011;-71
2022/11/29 01:57:48;;;;;;;29.27;19.58;;;7.20;66.40;;;;;;7387874;19;20019;-71
2022/11/29 02:00:20;;;;;;;31.88;19.98;;;7.20;66.40;;;;;;7379711;19;20466;-71
2022/11/29 02:02:55;;;;;;;28.58;19.08;;;7.20;66.50;;;;;;7385362;19;20470;-71
2022/11/29 02:05:27;;;;;;;29.23;19.02;;;7.20;66.50;;;;;;7388741;19;20026;-70
2022/11/29 02:07:59;;;;;;;26.73;18.70;;;7.20;66.60;;;;;;7389284;19;20458;-71
2022/11/29 02:10:41;;;;;;;26.10;18.00;;;7.20;66.80;;;;;;7383219;19;20010;-70
2022/11/29 02:13:25;;;;;;;29.58;18.05;;;7.20;66.70;;;;;;7387115;19;20011;-71
2022/11/29 02:16:01;;;;;;;27.75;17.10;;;7.20;66.80;;;;;;7386546;19;20368;-71
2022/11/29 02:18:41;;;;;;;32.72;18.17;;;7.30;66.90;;;;;;7384942;19;20024;-71
2022/11/29 02:21:27;;;;;;;23.52;15.82;;;7.30;67.00;;;;;;7381645;19;20027;-70
2022/11/29 02:24:16;;;;;;;25.17;16.35;;;7.30;67.00;;;;;;7388983;19;20006;-70
2022/11/29 02:27:08;;;;;;;20.02;13.90;;;7.30;67.00;;;;;;7389045;19;20031;-70
2022/11/29 02:30:06;;;;;;;23.25;14.25;;;7.30;67.00;;;;;;7382068;19;20039;-70
2022/11/29 02:33:03;;;;;;;21.08;13.63;;;7.30;67.10;;;;;;7386033;19;20394;-71
2022/11/29 02:35:49;;;;;;;17.40;12.43;;;7.30;67.10;;;;;;7388004;19;20018;-71
2022/11/29 02:38:40;;;;;;;21.40;12.48;;;7.40;67.20;;;;;;7392724;19;20115;-71
2022/11/29 02:41:28;;;;;;;16.40;11.63;;;7.30;67.10;;;;;;7389541;19;20015;-71
2022/11/29 02:44:24;;;;;;;16.67;11.68;;;7.30;67.10;;;;;;7395679;19;20014;-71
2022/11/29 02:47:07;;;;;;;21.25;12.32;;;7.40;67.30;;;;;;7395094;19;20026;-71
2022/11/29 02:49:51;;;;;;;20.20;12.40;;;7.40;67.30;;;;;;7388514;19;20015;-71
2022/11/29 02:52:27;;;;;;;17.13;11.85;;;7.30;67.30;;;;;;7391226;19;20011;-71
2022/11/29 02:55:06;;;;;;;17.55;12.48;;;7.30;67.20;;;;;;7394649;19;20541;-71
2022/11/29 02:57:44;;;;;;;18.23;12.68;;;7.30;67.20;;;;;;7394487;19;20394;-71
2022/11/29 03:00:17;;;;;;;16.75;12.10;;;7.30;67.30;;;;;;7385666;19;20010;-71
2022/11/29 03:02:54;;;;;;;19.75;12.25;;;7.30;67.40;;;;;;7393087;19;20447;-71
2022/11/29 03:05:38;;;;;;;18.77;11.80;;;7.30;67.40;;;;;;7394036;19;20111;-70
2022/11/29 03:08:15;;;;;;;16.38;12.02;;;7.30;67.40;;;;;;7394394;19;20017;-70
2022/11/29 03:10:56;;;;;;;17.00;11.70;;;7.30;67.40;;;;;;7388988;19;20015;-71
2022/11/29 03:13:43;;;;;;;15.98;11.38;;;7.40;67.50;;;;;;7393224;19;20099;-71
2022/11/29 03:16:20;;;;;;;16.42;10.95;;;7.30;67.40;;;;;;7393440;19;20011;-71
2022/11/29 03:19:05;;;;;;;15.10;10.70;;;7.30;67.50;;;;;;7390137;19;20011;-70
2022/11/29 03:21:47;;;;;;;14.90;10.70;;;7.30;67.50;;;;;;7387520;19;20494;-71
2022/11/29 03:24:22;;;;;;;12.70;10.10;;;7.30;67.50;;;;;;7393928;19;20030;-70
2022/11/29 03:27:01;;;;;;;14.75;10.45;;;7.30;67.80;;;;;;7393783;19;20359;-71
2022/11/29 03:29:38;;;;;;;12.43;9.32;;;7.30;67.90;;;;;;7387677;19;20013;-72
2022/11/29 03:32:14;;;;;;;12.20;9.55;;;7.30;67.90;;;;;;7389911;19;20098;-71
2022/11/29 03:34:56;;;;;;;13.05;9.65;;;7.30;68.00;;;;;;7392961;19;20454;-70
2022/11/29 03:37:36;;;;;;;13.90;9.57;;;7.30;67.90;;;;;;7393694;19;20074;-70
2022/11/29 03:40:09;;;;;;;13.27;9.00;;;7.30;67.90;;;;;;7385663;19;20356;-70
2022/11/29 03:42:46;;;;;;;13.43;9.23;;;7.30;67.90;;;;;;7392347;19;20784;-71
2022/11/29 03:45:24;;;;;;;12.52;8.77;;;7.30;67.90;;;;;;7347910;19;20011;-69
2022/11/29 03:48:01;;;;;;;13.57;9.57;;;7.30;67.90;;;;;;7384399;19;20015;-72
2022/11/29 03:50:37;;;;;;;12.10;8.85;;;7.30;67.90;;;;;;7357656;19;20025;-71
2022/11/29 03:53:18;;;;;;;12.23;9.50;;;7.30;67.90;;;;;;7385704;19;20014;-71
2022/11/29 03:55:53;;;;;;;12.65;8.68;;;7.30;67.90;;;;;;7363751;19;20018;-71
2022/11/29 03:58:37;;;;;;;14.13;9.60;;;7.30;67.90;;;;;;7361112;19;20437;-71
2022/11/29 04:01:36;;;;;;;12.05;8.95;;;7.30;67.90;;;;;;7357153;19;20423;-71
2022/11/29 04:04:42;;;;;;;13.93;8.80;;;7.30;67.90;;;;;;7364033;19;20549;-70
2022/11/29 04:07:33;;;;;;;14.25;9.50;;;7.30;67.90;;;;;;7364174;19;20081;-70
2022/11/29 04:10:38;;;;;;;13.55;8.80;;;7.30;68.00;;;;;;7356327;19;20022;-70
2022/11/29 04:13:46;;;;;;;13.87;9.43;;;7.30;67.90;;;;;;7362260;19;20024;-70
2022/11/29 04:16:49;;;;;;;11.98;8.85;;;7.30;68.00;;;;;;7363446;19;20783;-71
2022/11/29 04:19:51;;;;;;;15.65;9.35;;;7.30;68.00;;;;;;7357288;19;20007;-71
2022/11/29 04:22:38;;;;;;;14.88;9.63;;;7.30;68.00;;;;;;7358744;19;20010;-71
2022/11/29 04:25:41;;;;;;;13.43;9.43;;;7.30;68.00;;;;;;7362569;19;20033;-70
2022/11/29 04:28:51;;;;;;;15.75;10.18;;;7.30;68.00;;;;;;7362086;19;20017;-71
2022/11/29 04:31:36;;;;;;;12.73;9.75;;;7.30;68.10;;;;;;7354350;19;20042;-71
2022/11/29 04:34:29;;;;;;;15.32;10.57;;;7.30;68.10;;;;;;7363768;19;20469;-71
2022/11/29 04:37:16;;;;;;;13.15;9.82;;;7.30;68.00;;;;;;7363332;19;20011;-71
2022/11/29 04:40:05;;;;;;;15.80;10.70;;;7.30;68.10;;;;;;7355220;19;20021;-71
2022/11/29 04:42:56;;;;;;;17.52;10.65;;;7.30;68.10;;;;;;7360563;19;20466;-72
2022/11/29 04:45:51;;;;;;;14.57;9.70;;;7.30;68.10;;;;;;7363325;19;20010;-72
2022/11/29 04:48:37;;;;;;;15.60;10.48;;;7.30;68.10;;;;;;7388497;19;20021;-71
2022/11/29 04:51:18;;;;;;;14.15;10.30;;;7.30;68.10;;;;;;7384628;19;20032;-71
2022/11/29 04:53:55;;;;;;;12.90;9.32;;;7.30;68.20;;;;;;7391822;19;20002;-71
2022/11/29 04:56:37;;;;;;;16.48;10.13;;;7.30;68.10;;;;;;7390460;19;20405;-71
2022/11/29 04:59:17;;;;;;;14.82;10.23;;;7.30;68.10;;;;;;7383783;19;20347;-71
2022/11/29 05:01:58;;;;;;;15.55;11.15;;;7.30;68.10;;;;;;7386256;19;20014;-69
2022/11/29 05:04:35;;;;;;;15.75;10.07;;;7.30;68.60;;;;;;7390020;19;20013;-71
2022/11/29 05:07:12;;;;;;;14.90;10.27;;;7.30;68.50;;;;;;7390690;19;20006;-71
2022/11/29 05:09:57;;;;;;;15.63;10.30;;;7.30;68.50;;;;;;7384250;19;20617;-70
2022/11/29 05:12:35;;;;;;;16.05;10.27;;;7.30;68.50;;;;;;7385844;19;20093;-70
2022/11/29 05:15:33;;;;;;;17.63;11.23;;;7.30;68.50;;;;;;7390590;19;20058;-70
2022/11/29 05:18:13;;;;;;;18.38;11.65;;;7.30;68.50;;;;;;7388579;19;20700;-70
2022/11/29 05:20:49;;;;;;;17.98;12.07;;;7.30;68.50;;;;;;7384609;19;20030;-70
2022/11/29 05:23:31;;;;;;;20.83;12.50;;;7.30;68.40;;;;;;7388710;19;20030;-70
2022/11/29 05:26:06;;;;;;;19.10;12.00;;;7.30;68.40;;;;;;7389843;19;20029;-70
2022/11/29 05:28:47;;;;;;;19.77;12.25;;;7.30;68.40;;;;;;7388262;19;20014;-72
2022/11/29 05:31:41;;;;;;;19.20;12.38;;;7.30;68.50;;;;;;7383182;19;20015;-71
2022/11/29 05:34:34;;;;;;;19.92;12.52;;;7.30;68.50;;;;;;7389809;19;20014;-70
2022/11/29 05:37:16;;;;;;;17.73;11.32;;;7.30;68.50;;;;;;7389269;19;20381;-70
2022/11/29 05:39:59;;;;;;;18.65;12.02;;;7.30;68.40;;;;;;7381926;19;20078;-70
2022/11/29 05:42:57;;;;;;;20.60;12.38;;;7.20;68.40;;;;;;7385079;19;20014;-70
2022/11/29 05:45:33;;;;;;;23.60;12.55;;;7.30;68.50;;;;;;7389187;19;20025;-70
2022/11/29 05:48:15;;;;;;;23.15;13.35;;;7.30;68.50;;;;;;7388400;19;20106;-70
2022/11/29 05:50:49;;;;;;;22.20;13.57;;;7.30;68.40;;;;;;7382843;19;20501;-71
2022/11/29 05:53:25;;;;;;;23.13;13.55;;;7.30;68.40;;;;;;7388257;19;20021;-69
2022/11/29 05:56:05;;;;;;;26.88;15.75;;;7.30;68.40;;;;;;7388438;19;20018;-70
2022/11/29 05:58:43;;;;;;;23.38;13.48;;;7.20;68.30;;;;;;7387006;19;20007;-71
2022/11/29 06:01:22;;;;;;;23.67;14.35;;;7.30;68.40;;;;;;7382727;19;20100;-70
2022/11/29 06:04:03;;;;;;;23.17;12.75;;;7.30;68.40;;;;;;7388891;19;20462;-70
2022/11/29 06:06:45;;;;;;;29.65;14.55;;;7.20;68.40;;;;;;7387429;19;20046;-70
2022/11/29 06:09:20;;;;;;;25.35;14.98;;;7.20;68.90;;;;;;7383962;19;20018;-69
2022/11/29 06:11:55;;;;;;;29.50;14.88;;;7.20;69.10;;;;;;7388399;19;20021;-71
2022/11/29 06:14:36;;;;;;;;;;;7.30;69.10;;;;;;7395718;19;20010;-71
2022/11/29 06:17:35;;;;;;;31.13;15.93;;;7.20;69.10;;;;;;7394150;19;19922;-71
2022/11/29 06:20:28;;;;;;;31.70;16.42;;;7.20;69.10;;;;;;7384187;19;20017;-70
2022/11/29 06:23:12;;;;;;;33.75;16.67;;;7.20;69.10;;;;;;7393287;19;20462;-70
2022/11/29 06:25:55;;;;;;;38.50;18.30;;;7.20;69.20;;;;;;7393251;19;20018;-70
2022/11/29 06:28:41;;;;;;;37.35;17.40;;;7.30;69.40;;;;;;7391032;19;20649;-70
2022/11/29 06:31:18;;;;;;;39.92;18.98;;;7.30;69.40;;;;;;7386648;19;20014;-70
2022/11/29 06:33:57;;;;;;;36.03;17.10;;;7.30;69.40;;;;;;7392218;19;20704;-70
2022/11/29 06:36:35;;;;;;;38.67;18.67;;;7.30;69.40;;;;;;7393792;19;20054;-71
2022/11/29 06:39:06;;;;;;;38.80;18.73;;;7.30;69.40;;;;;;7388262;19;20357;-71
2022/11/29 06:41:37;;;;;;;41.80;18.77;;;7.30;69.60;;;;;;7384085;19;20034;-71
2022/11/29 06:44:07;;;;;;;40.33;18.67;;;7.30;69.80;;;;;;7392016;19;20464;-71
2022/11/29 06:46:47;;;;;;;37.97;19.55;;;7.30;69.70;;;;;;7391823;19;20101;-72
2022/11/29 06:49:25;;;;;;;32.05;17.30;;;7.30;69.60;;;;;;7389427;19;20050;-71
2022/11/29 06:52:08;;;;;;;38.67;18.25;;;7.20;69.50;;;;;;7389216;19;20218;-71
2022/11/29 06:54:50;;;;;;;33.72;16.73;;;7.30;69.60;;;;;;7393007;19;20498;-71
2022/11/29 06:57:26;;;;;;;29.05;15.45;;;7.30;69.50;;;;;;7391568;19;20010;-71
2022/11/29 07:00:05;;;;;;;31.38;16.30;;;7.20;69.50;;;;;;7384269;19;20020;-71
2022/11/29 07:02:56;;;;;;;33.28;17.10;;;7.20;69.50;;;;;;7387848;19;20017;-71
2022/11/29 07:05:30;;;;;;;30.90;15.65;;;7.20;69.60;;;;;;7394469;19;20078;-70
2022/11/29 07:08:05;;;;;;;32.70;16.50;;;7.20;69.60;;;;;;7391706;19;20356;-70
2022/11/29 07:10:38;;;;;;;30.70;16.80;;;7.20;69.70;;;;;;7387003;19;20374;-70
2022/11/29 07:13:08;;;;;;;32.10;17.10;;;7.30;70.00;;;;;;7391194;19;20010;-70
2022/11/29 07:15:40;;;;;;;31.45;16.70;;;7.20;70.00;;;;;;7393620;19;20035;-70
2022/11/29 07:18:23;;;;;;;28.13;15.73;;;7.30;70.10;;;;;;7390705;19;20015;-70
2022/11/29 07:21:05;;;;;;;25.02;12.75;;;7.30;70.10;;;;;;7383225;19;20355;-70
2022/11/29 07:23:45;;;;;;;26.33;15.40;;;7.30;70.10;;;;;;7389027;19;20014;-70
2022/11/29 07:26:24;;;;;;;27.33;14.98;;;7.30;70.20;;;;;;7393591;19;20021;-70
2022/11/29 07:29:06;;;;;;;23.83;13.38;;;7.30;70.20;;;;;;7389452;19;20122;-70
2022/11/29 07:31:46;;;;;;;26.00;13.40;;;7.30;70.30;;;;;;7384707;19;20015;-70
2022/11/29 07:34:23;;;;;;;21.33;13.13;;;7.30;70.20;;;;;;7393734;19;20013;-70
2022/11/29 07:37:02;;;;;;;21.63;12.75;;;7.20;70.00;;;;;;7394503;19;20011;-71
2022/11/29 07:39:45;;;;;;;20.88;12.73;;;7.20;70.00;;;;;;7383724;19;20070;-72
2022/11/29 07:42:24;;;;;;;19.02;12.02;;;7.30;70.10;;;;;;7345747;19;20478;-71
2022/11/29 07:45:05;;;;;;;24.05;13.60;;;7.30;70.20;;;;;;7363467;19;20038;-70
2022/11/29 07:47:35;;;;;;;18.55;11.48;;;7.30;70.20;;;;;;7364180;19;20100;-71
2022/11/29 07:50:05;;;;;;;19.48;11.40;;;7.30;70.20;;;;;;7355579;19;20014;-70
2022/11/29 07:52:35;;;;;;;17.67;10.80;;;7.20;70.10;;;;;;7360904;19;20440;-71
2022/11/29 07:55:13;;;;;;;17.90;11.18;;;7.20;70.00;;;;;;7385105;19;20022;-70
2022/11/29 07:57:48;;;;;;;18.58;10.75;;;7.20;69.90;;;;;;7363588;19;20025;-72
2022/11/29 08:00:19;;;;;;;17.05;11.05;;;7.20;70.00;;;;;;7352997;19;20011;-71
2022/11/29 08:02:50;;;;;;;17.58;10.60;;;7.20;70.10;;;;;;7361874;19;20057;-70
2022/11/29 08:05:21;;;;;;;17.13;11.32;;;7.20;70.10;;;;;;7363939;19;20015;-70
2022/11/29 08:07:53;;;;;;;15.07;10.80;;;7.20;70.00;;;;;;7363486;19;20015;-70
2022/11/29 08:10:25;;;;;;;15.77;9.82;;;7.20;69.90;;;;;;7374607;19;20010;-69
2022/11/29 08:12:55;;;;;;;13.70;9.63;;;7.20;70.00;;;;;;7362298;19;20038;-70
2022/11/29 08:15:26;;;;;;;17.55;10.40;;;7.30;70.10;;;;;;7363082;19;20014;-70
2022/11/29 08:17:56;;;;;;;14.27;9.30;;;7.20;70.10;;;;;;7363038;19;20082;-71
2022/11/29 08:20:26;;;;;;;13.88;8.52;;;7.20;70.20;;;;;;7353389;19;20010;-71
2022/11/29 08:22:57;;;;;;;12.23;8.82;;;7.30;70.30;;;;;;7361243;19;20015;-71
2022/11/29 08:25:30;;;;;;;13.18;9.07;;;7.20;70.10;;;;;;7386270;19;20006;-71
2022/11/29 08:27:59;;;;;;;13.35;8.85;;;7.20;70.10;;;;;;7362043;19;20007;-71
2022/11/29 08:30:29;;;;;;;13.27;9.10;;;7.20;70.10;;;;;;7354993;19;20388;-71
2022/11/29 08:32:59;;;;;;;15.32;9.40;;;7.20;70.10;;;;;;7360821;19;20021;-71
2022/11/29 08:35:29;;;;;;;21.10;11.15;;;7.20;70.10;;;;;;7362599;19;20442;-71
2022/11/29 08:37:59;;;;;;;25.65;12.60;;;7.20;70.20;;;;;;7362718;19;20014;-71
2022/11/29 08:40:31;;;;;;;28.63;12.75;;;7.20;70.20;;;;;;7364941;19;20608;-72
2022/11/29 08:43:02;;;;;;;30.42;13.20;;;7.20;70.30;;;;;;7382587;19;20789;-70
2022/11/29 08:45:32;;;;;;;25.67;12.85;;;7.20;70.10;;;;;;7361710;19;20429;-70
2022/11/29 08:48:01;;;;;;;37.15;13.75;;;7.30;70.40;;;;;;7360447;19;20025;-70
2022/11/29 08:50:31;;;;;;;48.33;15.57;;;7.20;70.50;;;;;;7353906;19;20434;-71
2022/11/29 08:55:46;;;;;;;40.47;16.10;;;7.20;70.10;;;;;;7360873;19;20014;-71
2022/11/29 08:58:17;;;;;;;35.95;16.80;;;7.20;70.20;;;;;;7382242;19;20017;-71
2022/11/29 09:00:47;;;;;;;41.88;17.25;;;7.20;70.20;;;;;;7351555;19;20053;-71
2022/11/29 09:05:59;;;;;;;45.78;18.50;;;7.20;70.20;;;;;;7361484;19;20095;-71
2022/11/29 09:08:29;;;;;;;40.25;18.00;;;7.20;70.30;;;;;;7358079;19;20492;-70
2022/11/29 09:11:02;;;;;;;43.53;19.50;;;7.20;70.30;;;;;;7354354;19;20013;-70
2022/11/29 09:13:31;;;;;;;50.72;20.83;;;7.20;70.30;;;;;;7359022;19;20015;-71
2022/11/29 09:16:01;;;;;;;63.25;23.85;;;7.20;70.20;;;;;;7381361;19;20086;-70
2022/11/29 09:18:31;;;;;;;55.70;23.38;;;7.20;70.20;;;;;;7356703;19;20401;-70
2022/11/29 09:21:01;;;;;;;89.65;26.63;;;7.20;70.20;;;;;;7353408;19;20466;-71
2022/11/29 09:23:30;;;;;;;68.32;25.02;;;7.20;70.20;;;;;;7356716;19;20343;-71
2022/11/29 09:26:03;;;;;;;75.68;25.73;;;7.20;70.20;;;;;;7359948;19;20018;-71
2022/11/29 09:28:33;;;;;;;68.97;23.27;;;7.20;70.70;;;;;;7357409;19;20043;-73
2022/11/29 09:31:07;;;;;;;50.67;20.65;;;7.20;70.40;;;;;;7374220;19;20025;-71
2022/11/29 09:33:38;;;;;;;49.03;20.15;;;7.20;70.60;;;;;;7358184;19;20010;-70
2022/11/29 09:36:10;;;;;;;58.38;22.05;;;7.20;70.50;;;;;;7360036;19;20095;-71
2022/11/29 09:38:41;;;;;;;49.70;19.75;;;7.20;70.50;;;;;;7355782;19;20018;-70
2022/11/29 09:41:36;;;;;;;42.58;18.67;;;7.30;70.60;;;;;;7351431;19;20101;-70
2022/11/29 09:44:09;;;;;;;;;;;7.30;70.60;;;;;;7385480;19;20034;-70
2022/11/29 09:46:46;;;;;;;46.58;20.50;;;7.20;70.40;;;;;;7387150;19;19914;-70
2022/11/29 09:49:34;;;;;;;39.05;18.85;;;7.20;70.30;;;;;;7383314;19;20672;-70
2022/11/29 09:52:15;;;;;;;44.83;20.30;;;7.20;70.30;;;;;;7382240;19;20085;-72
2022/11/29 09:54:53;;;;;;;41.00;20.42;;;7.30;70.40;;;;;;7386394;19;20018;-70
2022/11/29 09:57:27;;;;;;;41.05;20.35;;;7.20;70.40;;;;;;7388193;19;20021;-70
2022/11/29 09:59:59;;;;;;;37.72;19.05;;;7.20;70.30;;;;;;7380269;19;20019;-71
2022/11/29 10:02:34;;;;;;;32.58;16.63;;;7.20;70.30;;;;;;7379113;19;20394;-70
2022/11/29 10:05:12;;;;;;;33.17;16.63;;;7.20;70.10;;;;;;7385245;19;20032;-71
2022/11/29 10:07:47;;;;;;;29.95;16.13;;;7.20;70.10;;;;;;7386439;19;20474;-71
2022/11/29 10:10:22;;;;;;;31.80;17.13;;;7.20;69.90;;;;;;7377692;19;20044;-71
2022/11/29 10:12:58;;;;;;;31.80;17.88;;;7.20;70.00;;;;;;7385708;19;20018;-70
2022/11/29 10:15:34;;;;;;;43.65;23.50;;;7.20;69.80;;;;;;7387549;19;20018;-71
2022/11/29 10:18:12;;;;;;;52.20;26.65;;;7.20;69.60;;;;;;7388606;19;20083;-72
2022/11/29 10:20:45;;;;;;;46.38;21.98;;;7.10;69.40;;;;;;7380475;19;20026;-72
2022/11/29 10:23:23;;;;;;;26.33;16.45;;;7.20;69.50;;;;;;7383496;19;20083;-70
2022/11/29 10:25:55;;;;;;;26.55;15.43;;;7.20;69.50;;;;;;7387844;19;20027;-70
2022/11/29 10:28:30;;;;;;;26.30;16.17;;;7.20;69.50;;;;;;7383033;19;20653;-70
2022/11/29 10:31:07;;;;;;;24.60;14.70;;;7.20;69.50;;;;;;7378603;19;20087;-71
2022/11/29 10:33:41;;;;;;;23.60;14.13;;;7.10;68.20;;;;;;7383856;19;20011;-70
2022/11/29 10:36:18;;;;;;;24.55;14.60;;;7.10;68.80;;;;;;7386584;19;20042;-70
2022/11/29 10:38:49;;;;;;;23.35;14.02;;;7.10;68.60;;;;;;7383138;19;20156;-70
2022/11/29 10:41:23;;;;;;;24.90;14.32;;;7.20;68.60;;;;;;7378484;19;20097;-71
2022/11/29 10:43:57;;;;;;;21.17;13.85;;;7.20;68.50;;;;;;7383625;19;20023;-71
2022/11/29 10:46:31;;;;;;;22.63;13.95;;;7.20;68.40;;;;;;7386419;19;20033;-70
2022/11/29 10:49:04;;;;;;;21.75;13.95;;;7.20;68.40;;;;;;7383625;19;20011;-71
2022/11/29 10:51:35;;;;;;;19.50;13.38;;;7.10;68.20;;;;;;7379330;19;20390;-71
2022/11/29 10:54:30;;;;;;;21.00;13.27;;;7.20;68.20;;;;;;7381656;19;20015;-70
2022/11/29 10:57:03;;;;;;;19.75;13.25;;;7.20;68.30;;;;;;7386635;19;20363;-70
2022/11/29 10:59:35;;;;;;;20.83;13.10;;;7.20;68.10;;;;;;7385335;19;20018;-70
2022/11/29 11:02:05;;;;;;;21.55;13.80;;;7.10;67.50;;;;;;7385708;19;20015;-71
2022/11/29 11:04:43;;;;;;;17.48;13.20;;;7.20;67.60;;;;;;7393559;19;20528;-70
2022/11/29 11:07:24;;;;;;;19.35;13.43;;;7.10;67.00;;;;;;7392927;19;20006;-70
2022/11/29 11:09:58;;;;;;;20.67;14.30;;;7.20;66.90;;;;;;7384633;19;20031;-71
2022/11/29 11:12:30;;;;;;;21.08;14.52;;;7.10;66.30;;;;;;7388288;19;20007;-71
2022/11/29 11:15:29;;;;;;;23.92;15.48;;;7.20;66.90;;;;;;7391450;19;20011;-72
2022/11/29 11:18:02;;;;;;;23.15;15.65;;;7.20;66.60;;;;;;7392573;19;20557;-71
2022/11/29 11:20:34;;;;;;;22.20;15.45;;;7.10;66.40;;;;;;7385875;19;20760;-70
2022/11/29 11:23:05;;;;;;;20.77;14.82;;;7.10;65.10;;;;;;7390430;19;20014;-70
2022/11/29 11:25:38;;;;;;;24.35;16.13;;;7.20;65.20;;;;;;7393916;19;20018;-70
2022/11/29 11:28:20;;;;;;;21.73;16.13;;;7.20;65.00;;;;;;7391891;19;20379;-71
2022/11/29 11:30:58;;;;;;;25.23;15.95;;;7.10;64.30;;;;;;7386009;19;20018;-70
2022/11/29 11:33:31;;;;;;;24.25;16.27;;;7.10;64.20;;;;;;7392098;19;20014;-70
2022/11/29 11:36:11;;;;;;;23.88;16.52;;;7.10;64.50;;;;;;7392859;19;20013;-70
2022/11/29 11:38:43;;;;;;;23.88;16.08;;;7.10;64.10;;;;;;7390953;19;20522;-71
2022/11/29 11:41:20;;;;;;;24.60;17.23;;;7.20;64.20;;;;;;7383150;19;20015;-70
2022/11/29 11:43:57;;;;;;;25.27;18.23;;;7.10;64.10;;;;;;7388984;19;20597;-70
2022/11/29 11:46:48;;;;;;;25.73;18.05;;;7.30;64.80;;;;;;7392732;19;20102;-70
2022/11/29 11:49:27;;;;;;;26.98;17.20;;;7.30;64.20;;;;;;7386636;19;20015;-70
2022/11/29 11:51:58;;;;;;;24.75;16.65;;;7.30;63.60;;;;;;7388480;19;20098;-71
2022/11/29 11:54:30;;;;;;;23.02;16.30;;;7.30;62.90;;;;;;7391833;19;20010;-71
2022/11/29 11:57:01;;;;;;;24.02;16.15;;;7.30;61.40;;;;;;7392646;19;20031;-69
2022/11/29 11:59:31;;;;;;;20.63;15.55;;;7.30;62.50;;;;;;7385023;19;20021;-70
2022/11/29 12:02:03;;;;;;;21.40;15.25;;;7.30;61.20;;;;;;7385072;19;20030;-70
2022/11/29 12:04:39;;;;;;;24.77;16.25;;;7.40;61.70;;;;;;7393156;19;20345;-71
2022/11/29 12:07:23;;;;;;;22.23;14.60;;;7.40;60.80;;;;;;7392743;19;20095;-70
2022/11/29 12:10:18;;;;;;;20.13;15.32;;;7.30;60.20;;;;;;7378887;19;20343;-70
2022/11/29 12:12:50;;;;;;;16.90;12.52;;;7.40;60.20;;;;;;7386789;19;20474;-71
2022/11/29 12:15:23;;;;;;;19.48;14.43;;;7.30;59.70;;;;;;7392197;19;20014;-70
2022/11/29 12:18:03;;;;;;;18.10;12.10;;;7.40;60.00;;;;;;7391277;19;20074;-70
2022/11/29 12:20:40;;;;;;;17.73;12.30;;;7.40;56.60;;;;;;7385508;19;20011;-70
2022/11/29 12:23:27;;;;;;;16.17;11.98;;;7.40;56.50;;;;;;7386080;19;20082;-71
2022/11/29 12:26:01;;;;;;;16.50;11.55;;;7.40;55.60;;;;;;7391514;19;20112;-70
2022/11/29 12:28:35;;;;;;;18.52;12.90;;;7.50;56.20;;;;;;7388697;19;20030;-70
2022/11/29 12:31:18;;;;;;;16.27;12.15;;;7.50;56.20;;;;;;7382823;19;20042;-70
2022/11/29 12:33:58;;;;;;;15.27;11.68;;;7.50;54.00;;;;;;7389694;19;20018;-70
2022/11/29 12:36:36;;;;;;;15.93;12.27;;;7.50;53.80;;;;;;7391026;19;20510;-71
2022/11/29 12:39:29;;;;;;;14.38;11.25;;;7.50;54.90;;;;;;7389798;19;20030;-70
2022/11/29 12:42:04;;;;;;;15.48;11.60;;;7.50;54.50;;;;;;7387393;19;20082;-70
2022/11/29 12:44:48;;;;;;;16.02;12.35;;;7.40;55.40;;;;;;7389587;19;20047;-69
2022/11/29 12:47:26;;;;;;;16.27;12.20;;;7.50;55.20;;;;;;7390444;19;20106;-69
2022/11/29 12:50:17;;;;;;;16.10;12.07;;;7.40;54.80;;;;;;7382243;19;20058;-72
2022/11/29 12:52:53;;;;;;;15.15;11.90;;;7.30;54.70;;;;;;7386933;19;20011;-69
2022/11/29 12:55:27;;;;;;;16.48;12.55;;;7.30;55.00;;;;;;7386277;19;20365;-69
2022/11/29 12:58:08;;;;;;;17.88;13.05;;;7.40;56.20;;;;;;7349886;19;20424;-70
2022/11/29 13:00:48;;;;;;;18.63;12.48;;;7.50;56.80;;;;;;7353472;19;20049;-71
2022/11/29 13:03:24;;;;;;;16.02;12.38;;;7.40;55.30;;;;;;7377096;19;20089;-69
2022/11/29 13:06:10;;;;;;;16.83;12.27;;;7.40;55.80;;;;;;7361620;19;20035;-69
2022/11/29 13:08:58;;;;;;;16.67;12.07;;;7.40;55.10;;;;;;7357425;19;20010;-69
2022/11/29 13:11:32;;;;;;;16.42;12.45;;;7.30;54.80;;;;;;7351637;19;20017;-68
2022/11/29 13:14:12;;;;;;;15.80;12.93;;;7.20;53.90;;;;;;7359010;19;20493;-69
2022/11/29 13:17:03;;;;;;;15.32;12.20;;;7.30;54.50;;;;;;7358689;19;20017;-68
2022/11/29 13:19:41;;;;;;;17.52;13.25;;;7.30;55.90;;;;;;7351558;19;20849;-68
2022/11/29 13:22:18;;;;;;;16.60;11.98;;;7.40;56.40;;;;;;7355310;19;20007;-69
2022/11/29 13:24:53;;;;;;;19.95;12.45;;;7.30;56.00;;;;;;7357680;19;20055;-70
2022/11/29 13:27:28;;;;;;;17.00;12.52;;;7.20;56.50;;;;;;7383234;19;20014;-69
2022/11/29 13:30:00;;;;;;;17.58;13.80;;;7.20;56.60;;;;;;7355040;19;20013;-69
2022/11/29 13:32:36;;;;;;;16.05;11.98;;;7.30;58.00;;;;;;7356475;19;20556;-70
2022/11/29 13:35:13;;;;;;;17.48;12.90;;;7.30;58.10;;;;;;7359781;19;20015;-70
2022/11/29 13:37:54;;;;;;;18.20;12.50;;;7.30;58.70;;;;;;7361610;19;20021;-69